createdAt,value
2023-03-02T00:00:16.868Z,16.33
2023-03-02T00:03:18.447Z,16.31
2023-03-02T00:06:20.139Z,16.31
2023-03-02T00:09:21.680Z,16.32
2023-03-02T00:12:23.677Z,16.31
2023-03-02T00:15:25.258Z,16.32
2023-03-02T00:18:26.708Z,16.32
2023-03-02T00:21:28.273Z,16.30
2023-03-02T00:24:29.719Z,16.32
2023-03-02T00:27:31.258Z,16.30
2023-03-02T00:30:32.783Z,16.29
2023-03-02T00:33:34.647Z,16.28
2023-03-02T00:36:36.233Z,16.27
2023-03-02T00:39:37.748Z,16.26
2023-03-02T00:42:39.355Z,16.27
2023-03-02T00:45:41.218Z,16.27
2023-03-02T00:48:43.451Z,16.26
2023-03-02T00:51:44.916Z,16.27
2023-03-02T00:54:46.383Z,16.27
2023-03-02T00:57:54.916Z,16.27
2023-03-02T01:01:06.561Z,16.27
2023-03-02T01:04:09.675Z,16.25
2023-03-02T01:07:14.767Z,16.23
2023-03-02T01:10:17.082Z,16.22
2023-03-02T01:13:19.605Z,16.23
2023-03-02T01:16:21.240Z,16.21
2023-03-02T01:19:22.878Z,16.21
2023-03-02T01:22:24.390Z,16.20
2023-03-02T01:25:25.884Z,16.21
2023-03-02T01:28:27.707Z,16.21
2023-03-02T01:31:30.291Z,16.21
2023-03-02T01:34:32.055Z,16.21
2023-03-02T01:37:34.186Z,16.20
2023-03-02T01:40:35.716Z,16.19
2023-03-02T01:43:37.718Z,16.19
2023-03-02T01:46:39.265Z,16.19
2023-03-02T01:49:49.669Z,16.20
2023-03-02T01:52:52.729Z,16.19
2023-03-02T01:55:54.796Z,16.19
2023-03-02T01:59:05.761Z,16.20
2023-03-02T02:02:10.660Z,16.20
2023-03-02T02:05:17.513Z,16.20
2023-03-02T02:08:19.258Z,16.19
2023-03-02T02:11:20.898Z,16.18
2023-03-02T02:14:25.600Z,16.18
2023-03-02T02:17:31.185Z,16.18
2023-03-02T02:20:37.275Z,16.18
2023-03-02T02:24:11.096Z,16.19
2023-03-02T02:27:13.675Z,16.19
2023-03-02T02:30:16.806Z,16.19
2023-03-02T02:33:23.257Z,16.19
2023-03-02T02:36:34.768Z,16.16
2023-03-02T02:39:45.179Z,16.16
2023-03-02T02:42:49.013Z,16.16
2023-03-02T02:45:54.999Z,16.15
2023-03-02T02:48:56.647Z,16.15
2023-03-02T02:52:00.056Z,16.16
2023-03-02T02:55:02.691Z,16.16
2023-03-02T02:58:13.632Z,16.16
2023-03-02T03:01:18.370Z,16.15
2023-03-02T03:04:28.028Z,16.14
2023-03-02T03:07:31.803Z,16.12
2023-03-02T03:10:40.234Z,16.13
2023-03-02T03:13:44.382Z,16.14
2023-03-02T03:16:48.240Z,16.15
2023-03-02T03:19:49.788Z,16.13
2023-03-02T03:22:53.432Z,16.13
2023-03-02T03:25:55.717Z,16.14
2023-03-02T03:28:57.422Z,16.12
2023-03-02T03:32:00.646Z,16.11
2023-03-02T03:35:03.798Z,16.12
2023-03-02T03:38:08.304Z,16.11
2023-03-02T03:41:09.862Z,16.12
2023-03-02T03:44:11.513Z,16.12
2023-03-02T03:47:15.774Z,16.11
2023-03-02T03:50:17.897Z,16.12
2023-03-02T03:53:19.497Z,16.11
2023-03-02T03:56:21.210Z,16.10
2023-03-02T03:59:25.412Z,16.09
2023-03-02T04:02:31.783Z,16.08
2023-03-02T04:05:34.193Z,16.10
2023-03-02T04:08:37.380Z,16.09
2023-03-02T04:11:41.080Z,16.11
2023-03-02T04:14:42.605Z,16.11
2023-03-02T04:17:44.956Z,16.13
2023-03-02T04:20:47.854Z,16.14
2023-03-02T04:23:49.468Z,16.14
2023-03-02T04:26:51.817Z,16.16
2023-03-02T04:29:54.004Z,16.18
2023-03-02T04:32:57.513Z,16.19
2023-03-02T04:36:01.077Z,16.20
2023-03-02T04:39:04.482Z,16.23
2023-03-02T04:42:06.049Z,16.23
2023-03-02T04:45:08.047Z,16.24
2023-03-02T04:48:09.564Z,16.24
2023-03-02T04:51:18.711Z,16.26
2023-03-02T04:54:25.300Z,16.26
2023-03-02T04:57:26.798Z,16.26
2023-03-02T05:00:28.859Z,16.26
2023-03-02T05:03:30.458Z,16.24
2023-03-02T05:06:32.320Z,16.26
2023-03-02T05:09:34.086Z,16.26
2023-03-02T05:12:54.338Z,16.23
2023-03-02T05:15:57.516Z,16.24
2023-03-02T05:19:00.195Z,16.22
2023-03-02T05:22:02.069Z,16.20
2023-03-02T05:25:04.570Z,16.20
2023-03-02T05:28:06.087Z,16.18
2023-03-02T05:31:08.058Z,16.17
2023-03-02T05:34:14.212Z,16.18
2023-03-02T05:37:15.733Z,16.15
2023-03-02T05:40:19.280Z,16.15
2023-03-02T05:43:21.770Z,16.14
2023-03-02T05:46:23.605Z,16.12
2023-03-02T05:49:25.099Z,16.12
2023-03-02T05:52:26.659Z,16.10
2023-03-02T05:55:28.825Z,16.11
2023-03-02T05:58:30.419Z,16.11
2023-03-02T06:01:32.176Z,16.11
2023-03-02T06:04:34.074Z,16.14
2023-03-02T06:07:35.621Z,16.15
2023-03-02T06:10:37.145Z,16.17
2023-03-02T06:13:39.854Z,16.17
2023-03-02T06:16:41.467Z,16.16
2023-03-02T06:19:43.120Z,16.16
2023-03-02T06:22:46.800Z,16.16
2023-03-02T06:25:48.859Z,16.19
2023-03-02T06:28:53.155Z,16.21
2023-03-02T06:31:55.329Z,16.23
2023-03-02T06:34:57.107Z,16.24
2023-03-02T06:37:58.811Z,16.25
2023-03-02T06:41:00.374Z,16.26
2023-03-02T06:44:02.104Z,16.27
2023-03-02T06:47:03.630Z,16.27
2023-03-02T06:50:06.205Z,16.27
2023-03-02T06:53:07.735Z,16.26
2023-03-02T06:56:10.063Z,16.26
2023-03-02T06:59:11.658Z,16.25
2023-03-02T07:02:13.288Z,16.24
2023-03-02T07:05:14.878Z,16.23
2023-03-02T07:08:16.388Z,16.21
2023-03-02T07:11:17.898Z,16.20
2023-03-02T07:14:19.381Z,16.19
2023-03-02T07:17:20.958Z,16.16
2023-03-02T07:20:22.549Z,16.16
2023-03-02T07:23:24.090Z,16.14
2023-03-02T07:26:25.567Z,16.13
2023-03-02T07:29:27.123Z,16.12
2023-03-02T07:32:28.735Z,16.12
2023-03-02T07:35:30.329Z,16.11
2023-03-02T07:38:31.906Z,16.10
2023-03-02T07:41:33.786Z,16.10
2023-03-02T07:44:35.527Z,16.11
2023-03-02T07:47:37.084Z,16.09
2023-03-02T07:50:38.651Z,16.07
2023-03-02T07:53:40.221Z,16.06
2023-03-02T07:56:41.763Z,16.05
2023-03-02T07:59:43.678Z,16.05
2023-03-02T08:02:45.233Z,16.04
2023-03-02T08:05:46.769Z,16.05
2023-03-02T08:08:48.629Z,16.04
2023-03-02T08:11:50.138Z,16.05
2023-03-02T08:14:51.830Z,16.04
2023-03-02T08:17:53.376Z,16.03
2023-03-02T08:20:55.218Z,16.02
2023-03-02T08:23:57.623Z,16.02
2023-03-02T08:27:03.118Z,16.01
2023-03-02T08:30:05.237Z,15.99
2023-03-02T08:33:07.305Z,15.99
2023-03-02T08:36:14.803Z,15.99
2023-03-02T08:39:16.267Z,15.98
2023-03-02T08:42:18.320Z,15.98
2023-03-02T08:45:20.795Z,15.98
2023-03-02T08:48:22.438Z,15.98
2023-03-02T08:51:25.440Z,16.00
2023-03-02T08:54:27.129Z,16.00
2023-03-02T08:57:28.622Z,15.98
2023-03-02T09:00:31.741Z,15.99
2023-03-02T09:03:33.258Z,15.99
2023-03-02T09:06:44.020Z,15.97
2023-03-02T09:09:45.481Z,15.97
2023-03-02T09:12:47.025Z,15.97
2023-03-02T09:15:48.458Z,15.96
2023-03-02T09:18:50.120Z,15.98
2023-03-02T09:21:51.579Z,15.98
2023-03-02T09:24:53.013Z,15.98
2023-03-02T09:27:54.458Z,15.98
2023-03-02T09:31:03.433Z,15.99
2023-03-02T09:34:05.618Z,16.00
2023-03-02T09:37:07.148Z,16.00
2023-03-02T09:40:25.188Z,16.03
2023-03-02T09:43:53.499Z,16.02
2023-03-02T09:47:34.929Z,16.05
2023-03-02T09:50:46.437Z,16.05
2023-03-02T09:54:10.994Z,16.09
2023-03-02T09:57:26.566Z,16.12
2023-03-02T10:00:36.126Z,16.12
2023-03-02T10:03:54.165Z,16.16
2023-03-02T10:07:01.388Z,16.18
2023-03-02T10:10:08.956Z,16.20
2023-03-02T10:13:40.605Z,16.22
2023-03-02T10:16:49.564Z,16.27
2023-03-02T10:19:56.614Z,16.32
2023-03-02T10:23:24.327Z,16.38
2023-03-02T10:26:35.395Z,16.40
2023-03-02T10:29:43.112Z,16.44
2023-03-02T10:32:52.407Z,16.48
2023-03-02T10:35:54.134Z,16.50
2023-03-02T10:38:57.628Z,16.51
2023-03-02T10:42:03.525Z,16.55
2023-03-02T10:45:23.876Z,16.58
2023-03-02T10:48:25.367Z,16.58
2023-03-02T10:51:32.007Z,16.60
2023-03-02T10:54:34.625Z,16.59
2023-03-02T10:57:38.702Z,16.58
2023-03-02T11:00:40.177Z,16.56
2023-03-02T11:03:41.818Z,16.57
2023-03-02T11:06:43.352Z,16.55
2023-03-02T11:10:00.521Z,16.56
2023-03-02T11:13:06.163Z,16.55
2023-03-02T11:16:16.800Z,16.55
2023-03-02T11:19:34.661Z,16.55
2023-03-02T11:22:53.350Z,16.56
2023-03-02T11:25:59.899Z,16.56
2023-03-02T11:29:11.850Z,16.57
2023-03-02T11:32:34.529Z,16.55
2023-03-02T11:35:53.046Z,16.56
2023-03-02T11:38:55.207Z,16.55
2023-03-02T11:41:56.791Z,16.56
2023-03-02T11:45:03.729Z,16.57
2023-03-02T11:48:26.610Z,16.60
2023-03-02T11:55:24.528Z,16.57
2023-03-02T11:58:29.652Z,16.56
2023-03-02T12:01:33.628Z,16.53
2023-03-02T12:04:38.141Z,16.53
2023-03-02T12:07:39.673Z,16.52
2023-03-02T12:10:44.401Z,16.53
2023-03-02T12:13:57.765Z,16.56
2023-03-02T12:17:25.425Z,16.57
2023-03-02T12:20:29.854Z,16.56
2023-03-02T12:23:34.217Z,16.55
2023-03-02T12:26:37.586Z,16.55
2023-03-02T12:29:43.582Z,16.55
2023-03-02T12:32:58.166Z,16.56
2023-03-02T12:36:10.098Z,16.56
2023-03-02T12:39:42.847Z,16.57
2023-03-02T12:42:49.349Z,16.57
2023-03-02T12:46:09.730Z,16.57
2023-03-02T12:49:33.393Z,16.60
2023-03-02T12:52:36.516Z,16.59
2023-03-02T12:55:38.580Z,16.60
2023-03-02T12:58:40.157Z,16.61
2023-03-02T13:01:41.644Z,16.63
2023-03-02T13:04:43.225Z,16.63
2023-03-02T13:07:56.358Z,16.64
2023-03-02T13:11:01.016Z,16.64
2023-03-02T13:14:17.448Z,16.63
2023-03-02T13:17:32.915Z,16.65
2023-03-02T13:20:34.592Z,16.64
2023-03-02T13:23:36.217Z,16.64
2023-03-02T13:26:39.778Z,16.65
2023-03-02T13:29:41.350Z,16.65
2023-03-02T13:32:45.682Z,16.66
2023-03-02T13:35:47.807Z,16.66
2023-03-02T13:38:52.639Z,16.65
2023-03-02T13:41:59.399Z,16.65
2023-03-02T13:45:31.251Z,16.64
2023-03-02T13:48:33.670Z,16.61
2023-03-02T13:51:38.190Z,16.63
2023-03-02T13:54:42.576Z,16.65
2023-03-02T13:57:45.811Z,16.68
2023-03-02T14:00:48.381Z,16.70
2023-03-02T14:03:50.002Z,16.71
2023-03-02T14:06:54.535Z,16.75
2023-03-02T14:09:57.602Z,16.76
2023-03-02T14:13:05.708Z,16.79
2023-03-02T14:16:10.788Z,16.80
2023-03-02T14:19:22.282Z,16.80
2023-03-02T14:22:26.844Z,16.82
2023-03-02T14:25:28.458Z,16.81
2023-03-02T14:28:33.006Z,16.81
2023-03-02T14:31:35.013Z,16.77
2023-03-02T14:34:37.394Z,16.78
2023-03-02T14:37:45.437Z,16.78
2023-03-02T14:40:47.203Z,16.77
2023-03-02T14:43:49.446Z,16.77
2023-03-02T14:46:51.310Z,16.77
2023-03-02T14:49:53.538Z,16.78
2023-03-02T14:52:57.729Z,16.79
2023-03-02T14:56:00.502Z,16.78
2023-03-02T14:59:02.058Z,16.79
2023-03-02T15:02:12.964Z,16.79
2023-03-02T15:05:20.676Z,16.81
2023-03-02T15:08:23.050Z,16.81
2023-03-02T15:11:26.467Z,16.82
2023-03-02T15:14:27.935Z,16.83
2023-03-02T15:17:29.432Z,16.85
2023-03-02T15:20:31.166Z,16.87
2023-03-02T15:23:32.922Z,16.89
2023-03-02T15:26:34.438Z,16.91
2023-03-02T15:29:35.948Z,16.90
2023-03-02T15:32:38.107Z,16.90
2023-03-02T15:35:40.805Z,16.91
2023-03-02T15:38:42.328Z,16.91
2023-03-02T15:41:43.870Z,16.91
2023-03-02T15:44:45.389Z,16.92
2023-03-02T15:47:47.105Z,16.94
2023-03-02T15:51:06.531Z,16.96
2023-03-02T15:54:10.717Z,16.97
2023-03-02T15:57:12.562Z,16.95
2023-03-02T16:00:14.447Z,16.95
2023-03-02T16:03:16.388Z,16.95
2023-03-02T16:06:18.080Z,16.93
2023-03-02T16:09:19.562Z,16.93
2023-03-02T16:12:23.305Z,16.93
2023-03-02T16:15:24.840Z,16.93
2023-03-02T16:18:26.308Z,16.93
2023-03-02T16:21:31.222Z,16.94
2023-03-02T16:24:32.687Z,16.92
2023-03-02T16:27:34.206Z,16.91
2023-03-02T16:30:36.513Z,16.92
2023-03-02T16:33:39.460Z,16.93
2023-03-02T16:36:42.112Z,16.95
2023-03-02T16:39:43.615Z,16.94
2023-03-02T16:42:45.155Z,16.96
2023-03-02T16:45:47.518Z,16.97
2023-03-02T16:48:49.687Z,16.98
2023-03-02T16:51:56.792Z,17.00
2023-03-02T16:54:59.251Z,17.00
2023-03-02T16:58:00.721Z,17.00
2023-03-02T17:01:02.283Z,16.98
2023-03-02T17:04:05.950Z,16.98
2023-03-02T17:07:08.256Z,17.01
2023-03-02T17:10:14.757Z,17.01
2023-03-02T17:13:17.071Z,17.00
2023-03-02T17:16:19.183Z,16.98
2023-03-02T17:19:20.720Z,16.98
2023-03-02T17:22:22.228Z,16.97
2023-03-02T17:25:23.870Z,16.98
2023-03-02T17:28:25.394Z,16.97
2023-03-02T17:31:27.080Z,16.96
2023-03-02T17:34:31.173Z,16.96
2023-03-02T17:37:33.061Z,16.97
2023-03-02T17:40:34.628Z,16.97
2023-03-02T17:43:38.220Z,16.97
2023-03-02T17:46:43.024Z,16.98
2023-03-02T17:49:45.173Z,16.89
2023-03-02T17:52:47.029Z,16.66
2023-03-02T17:55:48.526Z,16.59
2023-03-02T17:58:55.725Z,16.64
2023-03-02T18:01:57.272Z,16.66
2023-03-02T18:04:59.222Z,16.69
2023-03-02T18:08:00.752Z,16.74
2023-03-02T18:11:04.254Z,16.76
2023-03-02T18:14:05.798Z,16.76
2023-03-02T18:17:09.221Z,16.76
2023-03-02T18:20:11.971Z,16.77
2023-03-02T18:23:13.746Z,16.78
2023-03-02T18:26:16.100Z,16.78
2023-03-02T18:29:17.637Z,16.79
2023-03-02T18:32:19.182Z,16.80
2023-03-02T18:35:21.279Z,16.80
2023-03-02T18:38:30.599Z,16.82
2023-03-02T18:41:32.556Z,16.82
2023-03-02T18:44:34.714Z,16.83
2023-03-02T18:47:36.590Z,16.83
2023-03-02T18:50:39.541Z,16.83
2023-03-02T18:53:42.928Z,16.83
2023-03-02T18:56:44.589Z,16.84
2023-03-02T18:59:46.099Z,16.84
2023-03-02T19:02:47.966Z,16.84
2023-03-02T19:05:49.520Z,16.84
2023-03-02T19:08:51.063Z,16.84
2023-03-02T19:11:52.536Z,16.85
2023-03-02T19:14:55.587Z,16.85
2023-03-02T19:17:57.222Z,16.88
2023-03-02T19:20:59.112Z,16.89
2023-03-02T19:24:01.752Z,16.89
2023-03-02T19:27:03.538Z,16.88
2023-03-02T19:30:07.192Z,16.88
2023-03-02T19:33:09.788Z,16.86
2023-03-02T19:36:12.584Z,16.88
2023-03-02T19:39:14.426Z,16.88
2023-03-02T19:42:16.113Z,16.88
2023-03-02T19:45:31.211Z,16.91
2023-03-02T19:48:33.949Z,16.90
2023-03-02T19:51:35.587Z,16.91
2023-03-02T19:54:37.072Z,16.93
2023-03-02T19:57:39.950Z,16.95
2023-03-02T20:00:41.421Z,16.94
2023-03-02T20:03:44.092Z,16.95
2023-03-02T20:06:45.776Z,16.95
2023-03-02T20:09:47.330Z,16.93
2023-03-02T20:12:48.920Z,16.92
2023-03-02T20:15:51.138Z,16.70
2023-03-02T20:18:52.988Z,16.46
2023-03-02T20:21:54.582Z,16.41
2023-03-02T20:24:56.318Z,16.44
2023-03-02T20:27:58.465Z,16.48
2023-03-02T20:31:03.163Z,16.51
2023-03-02T20:34:08.970Z,16.54
2023-03-02T20:37:13.467Z,16.57
2023-03-02T20:40:17.395Z,16.60
2023-03-02T20:43:19.377Z,16.62
2023-03-02T20:46:33.848Z,16.64
2023-03-02T20:49:37.362Z,16.64
2023-03-02T20:52:38.885Z,16.65
2023-03-02T20:55:40.695Z,16.66
2023-03-02T20:58:43.334Z,16.68
2023-03-02T21:01:44.886Z,16.69
2023-03-02T21:04:47.097Z,16.70
2023-03-02T21:07:49.397Z,16.71
2023-03-02T21:10:51.155Z,16.71
2023-03-02T21:13:52.869Z,16.73
2023-03-02T21:16:54.509Z,16.72
2023-03-02T21:19:56.426Z,16.72
2023-03-02T21:22:59.443Z,16.72
2023-03-02T21:26:01.048Z,16.74
2023-03-02T21:29:03.748Z,16.74
2023-03-02T21:32:07.633Z,16.75
2023-03-02T21:35:09.992Z,16.76
2023-03-02T21:38:11.654Z,16.77
2023-03-02T21:41:13.215Z,16.79
2023-03-02T21:44:14.993Z,16.80
2023-03-02T21:47:16.478Z,16.81
2023-03-02T21:50:26.362Z,16.82
2023-03-02T21:53:27.903Z,16.81
2023-03-02T21:56:29.387Z,16.80
2023-03-02T21:59:30.884Z,16.80
2023-03-02T22:02:33.154Z,16.79
2023-03-02T22:05:35.356Z,16.78
2023-03-02T22:08:39.108Z,16.76
2023-03-02T22:11:40.736Z,16.73
2023-03-02T22:14:42.348Z,16.74
2023-03-02T22:17:43.914Z,16.71
2023-03-02T22:20:48.162Z,16.71
2023-03-02T22:23:49.965Z,16.69
2023-03-02T22:27:16.109Z,16.69
2023-03-02T22:30:23.617Z,16.66
2023-03-02T22:33:28.152Z,16.65
2023-03-02T22:36:29.617Z,16.64
2023-03-02T22:39:33.175Z,16.64
2023-03-02T22:42:34.649Z,16.64
2023-03-02T22:45:38.196Z,16.63
2023-03-02T22:48:41.131Z,16.62
2023-03-02T22:51:42.702Z,16.60
2023-03-02T22:54:45.545Z,16.58
2023-03-02T22:57:47.103Z,16.57
2023-03-02T23:00:48.897Z,16.56
2023-03-02T23:03:58.282Z,16.55
2023-03-02T23:07:02.593Z,16.56
2023-03-02T23:10:04.461Z,16.53
2023-03-02T23:13:05.977Z,16.53
2023-03-02T23:16:14.537Z,16.55
2023-03-02T23:19:16.071Z,16.53
2023-03-02T23:22:18.290Z,16.53
2023-03-02T23:25:19.878Z,16.53
2023-03-02T23:28:21.362Z,16.51
2023-03-02T23:31:22.905Z,16.51
2023-03-02T23:34:24.567Z,16.50
2023-03-02T23:37:26.088Z,16.49
2023-03-02T23:40:28.918Z,16.48
2023-03-02T23:43:30.421Z,16.46
2023-03-02T23:46:32.306Z,16.44
2023-03-02T23:49:33.805Z,16.43
2023-03-02T23:52:35.270Z,16.42
2023-03-02T23:55:39.460Z,16.44
2023-03-02T23:58:41.006Z,16.44
